Aérodrome :
LOGIN :

S'inscrire | Disclaimer

   EN    FR    IT 

 










Légende :    VFR   VFR Marginal   IFR   IFR Intensif   IFR Très Intensif
Visi : 
Plafond : 
>= 8 km
>= 3000ft
5 à 8 km
1000 à 3000 ft
1500m à 5 km
500 à 1000 ft
800 à 1500m
200 à 500 ft
< 800m
< 200 ft
Symboles :   Orages  Brouillard  Fortes neiges  Fortes précipitations  Vent > 20 kt
SIGMETs :   Divers  Orages  Givrage  Turbulence  Onde Orograph.  Cendres Volcan.






- Altitude de l'aérodrome : 314 ft
- Code IATA : OTP


LROP - Bucarest - Henri Coanda

DERNIER METAR :
  • 191500Z 14004KT 100V170 9999 OVC018 15/12 Q1024 NOSIG

METARs EXPIRÉS :
  • 191430Z VRB02KT 9999 OVC018 15/12 Q1024 NOSIG
  • 191400Z 13003KT 100V160 9999 OVC020 15/12 Q1024 NOSIG
  • 191330Z 09004KT 070V130 9999 OVC019 15/12 Q1024 NOSIG
  • 191300Z 12005KT 9999 OVC019 15/12 Q1024 NOSIG
  • 191230Z VRB03KT 9999 OVC019 16/12 Q1024 NOSIG

TAF TAF LROP
Valide du 19 à 12h jusqu'au 20 à 12h UTC


191100Z 1912/2012 VRB04KT 9999 BKN020
BECMG 1916/1918 3000 BR BKN010
BECMG 1919/1921 0800 FG BKN003
BECMG 1922/1924 05010KT
PROB30
TEMPO 2000/2004 0350 FG VV001
BECMG 2005/2007 3000 BR BKN005
BECMG 2007/2009 9999 NSW BKN010
BECMG 2009/2011 11014KT BKN020



MET'MAP, la Météo Aéronautique d'un coup d'oeil ! - Copyright ORBIFLY Décembre 2007 - Disclaimer

ORBIFLY MET'MAP TEAM :

Programmation & Développement : Alexandra Zaïnal
Conception & Développement : Baudouin d'Aumeries
Co-Programmation & Développement : Marc-Olivier Méhu
Soutien technique & logistique : Manuel Goepfert

Contact : metmap@orbifly.com




SOURCES & CREDITS :

   NOAA